sensor_id;sensor_type;location;lat;lon;timestamp;P1;durP1;ratioP1;P2;durP2;ratioP2
17814;SDS011;9031;50.974;11.330;2023-08-30T00:02:03;3.17;;;2.87;;
17814;SDS011;9031;50.974;11.330;2023-08-30T00:04:29;4.60;;;3.30;;
17814;SDS011;9031;50.974;11.330;2023-08-30T00:06:54;3.17;;;2.77;;
17814;SDS011;9031;50.974;11.330;2023-08-30T00:09:20;4.00;;;2.87;;
17814;SDS011;9031;50.974;11.330;2023-08-30T00:11:45;2.60;;;2.40;;
17814;SDS011;9031;50.974;11.330;2023-08-30T00:14:11;2.97;;;2.73;;
17814;SDS011;9031;50.974;11.330;2023-08-30T00:16:36;4.83;;;2.43;;
17814;SDS011;9031;50.974;11.330;2023-08-30T00:19:03;2.70;;;2.50;;
17814;SDS011;9031;50.974;11.330;2023-08-30T00:21:28;3.27;;;2.37;;
17814;SDS011;9031;50.974;11.330;2023-08-30T00:23:54;2.97;;;2.77;;
17814;SDS011;9031;50.974;11.330;2023-08-30T00:26:20;2.90;;;2.67;;
17814;SDS011;9031;50.974;11.330;2023-08-30T00:28:45;2.93;;;2.70;;
17814;SDS011;9031;50.974;11.330;2023-08-30T00:31:11;6.77;;;2.83;;
17814;SDS011;9031;50.974;11.330;2023-08-30T00:33:36;2.83;;;2.60;;
17814;SDS011;9031;50.974;11.330;2023-08-30T00:36:02;2.63;;;2.43;;
17814;SDS011;9031;50.974;11.330;2023-08-30T00:38:28;5.23;;;2.90;;
17814;SDS011;9031;50.974;11.330;2023-08-30T00:40:54;4.10;;;2.93;;
17814;SDS011;9031;50.974;11.330;2023-08-30T00:43:20;2.90;;;2.70;;
17814;SDS011;9031;50.974;11.330;2023-08-30T00:45:46;4.10;;;3.10;;
17814;SDS011;9031;50.974;11.330;2023-08-30T00:48:13;5.70;;;2.70;;
17814;SDS011;9031;50.974;11.330;2023-08-30T00:50:40;3.47;;;3.17;;
17814;SDS011;9031;50.974;11.330;2023-08-30T00:53:06;2.80;;;2.60;;
17814;SDS011;9031;50.974;11.330;2023-08-30T00:55:33;3.63;;;2.73;;
17814;SDS011;9031;50.974;11.330;2023-08-30T00:58:02;3.37;;;3.07;;
17814;SDS011;9031;50.974;11.330;2023-08-30T01:00:29;3.00;;;2.80;;
17814;SDS011;9031;50.974;11.330;2023-08-30T01:02:55;5.97;;;2.80;;
17814;SDS011;9031;50.974;11.330;2023-08-30T01:05:21;3.77;;;3.20;;
17814;SDS011;9031;50.974;11.330;2023-08-30T01:07:48;6.50;;;3.00;;
17814;SDS011;9031;50.974;11.330;2023-08-30T01:10:14;4.63;;;2.87;;
17814;SDS011;9031;50.974;11.330;2023-08-30T01:12:40;6.13;;;3.33;;
17814;SDS011;9031;50.974;11.330;2023-08-30T01:15:12;3.80;;;3.40;;
17814;SDS011;9031;50.974;11.330;2023-08-30T01:17:43;8.43;;;3.27;;
17814;SDS011;9031;50.974;11.330;2023-08-30T01:20:09;3.77;;;3.47;;
17814;SDS011;9031;50.974;11.330;2023-08-30T01:22:43;3.73;;;3.00;;
17814;SDS011;9031;50.974;11.330;2023-08-30T01:25:38;3.20;;;3.00;;
17814;SDS011;9031;50.974;11.330;2023-08-30T01:28:16;4.00;;;3.00;;
17814;SDS011;9031;50.974;11.330;2023-08-30T01:30:45;7.33;;;3.03;;
17814;SDS011;9031;50.974;11.330;2023-08-30T01:33:13;3.20;;;2.90;;
17814;SDS011;9031;50.974;11.330;2023-08-30T01:35:40;4.57;;;2.80;;
17814;SDS011;9031;50.974;11.330;2023-08-30T01:38:06;3.07;;;2.87;;
17814;SDS011;9031;50.974;11.330;2023-08-30T01:40:36;3.30;;;3.00;;
17814;SDS011;9031;50.974;11.330;2023-08-30T01:43:04;4.00;;;2.80;;
17814;SDS011;9031;50.974;11.330;2023-08-30T01:45:32;3.07;;;2.83;;
17814;SDS011;9031;50.974;11.330;2023-08-30T01:48:00;4.37;;;3.17;;
17814;SDS011;9031;50.974;11.330;2023-08-30T01:50:27;3.17;;;2.70;;
17814;SDS011;9031;50.974;11.330;2023-08-30T01:52:53;3.40;;;3.10;;
17814;SDS011;9031;50.974;11.330;2023-08-30T01:55:21;3.70;;;3.07;;
17814;SDS011;9031;50.974;11.330;2023-08-30T01:57:48;3.67;;;3.37;;
17814;SDS011;9031;50.974;11.330;2023-08-30T02:00:13;3.17;;;2.97;;
17814;SDS011;9031;50.974;11.330;2023-08-30T02:02:39;3.03;;;2.73;;
17814;SDS011;9031;50.974;11.330;2023-08-30T02:05:06;3.73;;;2.80;;
17814;SDS011;9031;50.974;11.330;2023-08-30T02:07:34;3.47;;;2.97;;
17814;SDS011;9031;50.974;11.330;2023-08-30T02:10:11;4.57;;;3.00;;
17814;SDS011;9031;50.974;11.330;2023-08-30T02:12:43;2.83;;;2.63;;
17814;SDS011;9031;50.974;11.330;2023-08-30T02:15:12;3.57;;;3.13;;
17814;SDS011;9031;50.974;11.330;2023-08-30T02:17:39;3.20;;;2.90;;
17814;SDS011;9031;50.974;11.330;2023-08-30T02:20:05;3.23;;;3.00;;
17814;SDS011;9031;50.974;11.330;2023-08-30T02:22:31;4.03;;;3.20;;
17814;SDS011;9031;50.974;11.330;2023-08-30T02:24:58;3.17;;;2.87;;
17814;SDS011;9031;50.974;11.330;2023-08-30T02:27:24;3.03;;;2.80;;
17814;SDS011;9031;50.974;11.330;2023-08-30T02:29:49;3.10;;;2.90;;
17814;SDS011;9031;50.974;11.330;2023-08-30T02:32:15;3.30;;;3.10;;
17814;SDS011;9031;50.974;11.330;2023-08-30T02:34:45;3.07;;;2.80;;
17814;SDS011;9031;50.974;11.330;2023-08-30T02:37:12;3.63;;;3.13;;
17814;SDS011;9031;50.974;11.330;2023-08-30T02:39:37;3.20;;;2.90;;
17814;SDS011;9031;50.974;11.330;2023-08-30T02:42:03;3.20;;;2.90;;
17814;SDS011;9031;50.974;11.330;2023-08-30T02:44:28;4.60;;;3.27;;
17814;SDS011;9031;50.974;11.330;2023-08-30T02:46:54;3.50;;;3.10;;
17814;SDS011;9031;50.974;11.330;2023-08-30T02:49:19;4.77;;;3.20;;
17814;SDS011;9031;50.974;11.330;2023-08-30T02:51:45;3.10;;;2.90;;
17814;SDS011;9031;50.974;11.330;2023-08-30T02:54:10;4.67;;;2.60;;
17814;SDS011;9031;50.974;11.330;2023-08-30T02:56:38;5.33;;;2.80;;
17814;SDS011;9031;50.974;11.330;2023-08-30T02:59:04;3.70;;;3.40;;
17814;SDS011;9031;50.974;11.330;2023-08-30T03:01:30;3.37;;;3.10;;
17814;SDS011;9031;50.974;11.330;2023-08-30T03:03:55;4.53;;;3.27;;
17814;SDS011;9031;50.974;11.330;2023-08-30T03:06:21;5.57;;;3.10;;
17814;SDS011;9031;50.974;11.330;2023-08-30T03:08:46;4.60;;;3.27;;
17814;SDS011;9031;50.974;11.330;2023-08-30T03:11:12;3.40;;;3.10;;
17814;SDS011;9031;50.974;11.330;2023-08-30T03:13:38;3.37;;;3.07;;
17814;SDS011;9031;50.974;11.330;2023-08-30T03:16:14;3.13;;;2.93;;
17814;SDS011;9031;50.974;11.330;2023-08-30T03:18:40;3.60;;;3.00;;
17814;SDS011;9031;50.974;11.330;2023-08-30T03:21:06;3.50;;;3.17;;
17814;SDS011;9031;50.974;11.330;2023-08-30T03:23:32;3.50;;;3.20;;
17814;SDS011;9031;50.974;11.330;2023-08-30T03:25:59;4.17;;;3.27;;
17814;SDS011;9031;50.974;11.330;2023-08-30T03:28:24;6.17;;;2.90;;
17814;SDS011;9031;50.974;11.330;2023-08-30T03:30:50;6.87;;;3.03;;
17814;SDS011;9031;50.974;11.330;2023-08-30T03:33:15;3.23;;;3.03;;
17814;SDS011;9031;50.974;11.330;2023-08-30T03:35:41;3.20;;;3.00;;
17814;SDS011;9031;50.974;11.330;2023-08-30T03:38:06;3.40;;;3.20;;
17814;SDS011;9031;50.974;11.330;2023-08-30T03:40:32;3.33;;;3.10;;
17814;SDS011;9031;50.974;11.330;2023-08-30T03:42:58;3.37;;;3.07;;
17814;SDS011;9031;50.974;11.330;2023-08-30T03:45:23;3.10;;;2.80;;
17814;SDS011;9031;50.974;11.330;2023-08-30T03:47:49;3.30;;;3.10;;
17814;SDS011;9031;50.974;11.330;2023-08-30T03:50:14;3.60;;;3.20;;
17814;SDS011;9031;50.974;11.330;2023-08-30T03:52:40;9.77;;;3.70;;
17814;SDS011;9031;50.974;11.330;2023-08-30T03:55:05;5.27;;;3.10;;
17814;SDS011;9031;50.974;11.330;2023-08-30T03:57:31;3.87;;;3.17;;
17814;SDS011;9031;50.974;11.330;2023-08-30T03:59:57;3.43;;;3.10;;
17814;SDS011;9031;50.974;11.330;2023-08-30T04:02:22;3.70;;;3.33;;
17814;SDS011;9031;50.974;11.330;2023-08-30T04:04:48;4.40;;;3.27;;
17814;SDS011;9031;50.974;11.330;2023-08-30T04:07:14;5.27;;;2.97;;
17814;SDS011;9031;50.974;11.330;2023-08-30T04:09:40;4.77;;;3.30;;
17814;SDS011;9031;50.974;11.330;2023-08-30T04:12:06;3.50;;;3.20;;
17814;SDS011;9031;50.974;11.330;2023-08-30T04:14:32;4.67;;;3.90;;
17814;SDS011;9031;50.974;11.330;2023-08-30T04:16:57;4.03;;;3.73;;
17814;SDS011;9031;50.974;11.330;2023-08-30T04:19:23;4.13;;;3.73;;
17814;SDS011;9031;50.974;11.330;2023-08-30T04:21:48;4.33;;;3.97;;
17814;SDS011;9031;50.974;11.330;2023-08-30T04:24:14;4.07;;;3.67;;
17814;SDS011;9031;50.974;11.330;2023-08-30T04:26:40;5.47;;;3.90;;
17814;SDS011;9031;50.974;11.330;2023-08-30T04:29:06;5.20;;;4.13;;
17814;SDS011;9031;50.974;11.330;2023-08-30T04:31:31;7.80;;;4.13;;
17814;SDS011;9031;50.974;11.330;2023-08-30T04:33:57;5.67;;;4.37;;
17814;SDS011;9031;50.974;11.330;2023-08-30T04:36:22;5.60;;;4.40;;
17814;SDS011;9031;50.974;11.330;2023-08-30T04:38:48;5.43;;;3.43;;
17814;SDS011;9031;50.974;11.330;2023-08-30T04:41:13;4.13;;;3.60;;
17814;SDS011;9031;50.974;11.330;2023-08-30T04:43:39;4.47;;;4.07;;
17814;SDS011;9031;50.974;11.330;2023-08-30T04:46:04;4.07;;;3.77;;
17814;SDS011;9031;50.974;11.330;2023-08-30T04:48:30;4.67;;;4.17;;
17814;SDS011;9031;50.974;11.330;2023-08-30T04:51:00;4.93;;;4.07;;
17814;SDS011;9031;50.974;11.330;2023-08-30T04:53:27;3.93;;;3.63;;
17814;SDS011;9031;50.974;11.330;2023-08-30T04:55:53;5.33;;;3.90;;
17814;SDS011;9031;50.974;11.330;2023-08-30T04:58:19;4.60;;;3.60;;
17814;SDS011;9031;50.974;11.330;2023-08-30T05:00:44;4.53;;;4.10;;
17814;SDS011;9031;50.974;11.330;2023-08-30T05:03:10;4.90;;;4.37;;
17814;SDS011;9031;50.974;11.330;2023-08-30T05:05:35;4.03;;;3.63;;
17814;SDS011;9031;50.974;11.330;2023-08-30T05:08:01;4.40;;;3.80;;
17814;SDS011;9031;50.974;11.330;2023-08-30T05:10:27;4.27;;;3.97;;
17814;SDS011;9031;50.974;11.330;2023-08-30T05:12:52;7.63;;;3.80;;
17814;SDS011;9031;50.974;11.330;2023-08-30T05:15:18;4.40;;;4.07;;
17814;SDS011;9031;50.974;11.330;2023-08-30T05:17:44;4.70;;;4.20;;
17814;SDS011;9031;50.974;11.330;2023-08-30T05:20:09;4.80;;;4.40;;
17814;SDS011;9031;50.974;11.330;2023-08-30T05:22:35;4.97;;;4.40;;
17814;SDS011;9031;50.974;11.330;2023-08-30T05:25:00;8.33;;;4.70;;
17814;SDS011;9031;50.974;11.330;2023-08-30T05:27:26;5.10;;;4.60;;
17814;SDS011;9031;50.974;11.330;2023-08-30T05:29:52;4.83;;;4.27;;
17814;SDS011;9031;50.974;11.330;2023-08-30T05:32:18;6.10;;;4.20;;
17814;SDS011;9031;50.974;11.330;2023-08-30T05:34:43;4.73;;;4.33;;
17814;SDS011;9031;50.974;11.330;2023-08-30T05:37:09;4.73;;;4.33;;
17814;SDS011;9031;50.974;11.330;2023-08-30T05:39:35;4.83;;;4.30;;
17814;SDS011;9031;50.974;11.330;2023-08-30T05:42:00;4.37;;;3.80;;
17814;SDS011;9031;50.974;11.330;2023-08-30T05:44:26;4.63;;;4.23;;
17814;SDS011;9031;50.974;11.330;2023-08-30T05:46:51;4.00;;;3.70;;
17814;SDS011;9031;50.974;11.330;2023-08-30T05:49:17;4.33;;;3.93;;
17814;SDS011;9031;50.974;11.330;2023-08-30T05:51:42;5.83;;;4.30;;
17814;SDS011;9031;50.974;11.330;2023-08-30T05:54:08;4.30;;;3.90;;
17814;SDS011;9031;50.974;11.330;2023-08-30T05:56:33;4.40;;;4.00;;
17814;SDS011;9031;50.974;11.330;2023-08-30T05:58:59;4.40;;;4.00;;
17814;SDS011;9031;50.974;11.330;2023-08-30T06:01:24;4.60;;;4.20;;
17814;SDS011;9031;50.974;11.330;2023-08-30T06:03:50;6.90;;;4.53;;
17814;SDS011;9031;50.974;11.330;2023-08-30T06:06:16;4.50;;;4.10;;
17814;SDS011;9031;50.974;11.330;2023-08-30T06:08:42;4.73;;;4.23;;
17814;SDS011;9031;50.974;11.330;2023-08-30T06:11:07;4.40;;;4.10;;
17814;SDS011;9031;50.974;11.330;2023-08-30T06:13:33;5.17;;;3.90;;
17814;SDS011;9031;50.974;11.330;2023-08-30T06:15:58;4.60;;;4.10;;
17814;SDS011;9031;50.974;11.330;2023-08-30T06:18:24;4.07;;;3.70;;
17814;SDS011;9031;50.974;11.330;2023-08-30T06:20:51;3.90;;;3.43;;
17814;SDS011;9031;50.974;11.330;2023-08-30T06:23:17;4.53;;;4.23;;
17814;SDS011;9031;50.974;11.330;2023-08-30T06:25:43;4.97;;;3.90;;
17814;SDS011;9031;50.974;11.330;2023-08-30T06:28:09;7.13;;;4.47;;
17814;SDS011;9031;50.974;11.330;2023-08-30T06:30:34;4.73;;;4.03;;
17814;SDS011;9031;50.974;11.330;2023-08-30T06:33:00;4.43;;;4.03;;
17814;SDS011;9031;50.974;11.330;2023-08-30T06:35:25;4.60;;;4.20;;
17814;SDS011;9031;50.974;11.330;2023-08-30T06:37:51;4.20;;;3.80;;
17814;SDS011;9031;50.974;11.330;2023-08-30T06:40:17;6.03;;;3.57;;
17814;SDS011;9031;50.974;11.330;2023-08-30T06:42:43;3.87;;;3.43;;
17814;SDS011;9031;50.974;11.330;2023-08-30T06:45:08;3.67;;;3.30;;
17814;SDS011;9031;50.974;11.330;2023-08-30T06:47:34;4.53;;;3.50;;
17814;SDS011;9031;50.974;11.330;2023-08-30T06:50:00;4.07;;;2.90;;
17814;SDS011;9031;50.974;11.330;2023-08-30T06:52:26;5.40;;;3.80;;
17814;SDS011;9031;50.974;11.330;2023-08-30T06:54:51;5.90;;;3.50;;
17814;SDS011;9031;50.974;11.330;2023-08-30T06:57:17;3.90;;;3.03;;
17814;SDS011;9031;50.974;11.330;2023-08-30T06:59:42;4.90;;;3.63;;
17814;SDS011;9031;50.974;11.330;2023-08-30T07:02:08;3.60;;;3.17;;
17814;SDS011;9031;50.974;11.330;2023-08-30T07:04:33;6.67;;;3.30;;
17814;SDS011;9031;50.974;11.330;2023-08-30T07:06:59;3.70;;;3.40;;
17814;SDS011;9031;50.974;11.330;2023-08-30T07:09:25;3.50;;;3.20;;
17814;SDS011;9031;50.974;11.330;2023-08-30T07:11:54;4.40;;;2.93;;
17814;SDS011;9031;50.974;11.330;2023-08-30T07:14:20;3.47;;;2.97;;
17814;SDS011;9031;50.974;11.330;2023-08-30T07:16:45;3.30;;;3.00;;
17814;SDS011;9031;50.974;11.330;2023-08-30T07:19:11;3.17;;;2.80;;
17814;SDS011;9031;50.974;11.330;2023-08-30T07:21:37;3.57;;;2.63;;
17814;SDS011;9031;50.974;11.330;2023-08-30T07:24:04;3.17;;;2.90;;
17814;SDS011;9031;50.974;11.330;2023-08-30T07:26:31;4.03;;;3.63;;
17814;SDS011;9031;50.974;11.330;2023-08-30T07:28:56;3.50;;;3.20;;
17814;SDS011;9031;50.974;11.330;2023-08-30T07:31:22;3.57;;;2.97;;
17814;SDS011;9031;50.974;11.330;2023-08-30T07:33:47;3.53;;;3.23;;
17814;SDS011;9031;50.974;11.330;2023-08-30T07:36:13;2.80;;;2.60;;
17814;SDS011;9031;50.974;11.330;2023-08-30T07:38:38;3.00;;;2.80;;
17814;SDS011;9031;50.974;11.330;2023-08-30T07:41:04;3.67;;;2.90;;
17814;SDS011;9031;50.974;11.330;2023-08-30T07:43:29;3.33;;;3.00;;
17814;SDS011;9031;50.974;11.330;2023-08-30T07:45:55;3.97;;;2.70;;
17814;SDS011;9031;50.974;11.330;2023-08-30T07:48:21;4.80;;;2.67;;
17814;SDS011;9031;50.974;11.330;2023-08-30T07:50:47;3.07;;;2.73;;
17814;SDS011;9031;50.974;11.330;2023-08-30T07:53:12;4.33;;;2.90;;
17814;SDS011;9031;50.974;11.330;2023-08-30T07:55:38;4.13;;;2.77;;
17814;SDS011;9031;50.974;11.330;2023-08-30T07:58:03;3.37;;;2.53;;
17814;SDS011;9031;50.974;11.330;2023-08-30T08:00:29;2.60;;;2.40;;
17814;SDS011;9031;50.974;11.330;2023-08-30T08:02:55;2.80;;;2.47;;
17814;SDS011;9031;50.974;11.330;2023-08-30T08:05:20;2.73;;;2.50;;
17814;SDS011;9031;50.974;11.330;2023-08-30T08:07:50;2.90;;;2.70;;
17814;SDS011;9031;50.974;11.330;2023-08-30T08:10:16;4.73;;;2.73;;
17814;SDS011;9031;50.974;11.330;2023-08-30T08:12:42;3.07;;;2.83;;
17814;SDS011;9031;50.974;11.330;2023-08-30T08:15:08;4.60;;;3.00;;
17814;SDS011;9031;50.974;11.330;2023-08-30T08:17:34;3.10;;;2.90;;
17814;SDS011;9031;50.974;11.330;2023-08-30T08:20:00;3.50;;;3.20;;
17814;SDS011;9031;50.974;11.330;2023-08-30T08:22:25;4.07;;;3.10;;
17814;SDS011;9031;50.974;11.330;2023-08-30T08:24:51;4.43;;;3.17;;
17814;SDS011;9031;50.974;11.330;2023-08-30T08:27:18;5.47;;;3.27;;
17814;SDS011;9031;50.974;11.330;2023-08-30T08:29:44;5.17;;;3.60;;
17814;SDS011;9031;50.974;11.330;2023-08-30T08:32:09;3.97;;;3.57;;
17814;SDS011;9031;50.974;11.330;2023-08-30T08:34:35;5.10;;;3.83;;
17814;SDS011;9031;50.974;11.330;2023-08-30T08:37:00;3.50;;;3.20;;
17814;SDS011;9031;50.974;11.330;2023-08-30T08:39:26;4.13;;;3.03;;
17814;SDS011;9031;50.974;11.330;2023-08-30T08:41:51;3.70;;;3.40;;
17814;SDS011;9031;50.974;11.330;2023-08-30T08:44:18;3.43;;;3.07;;
17814;SDS011;9031;50.974;11.330;2023-08-30T08:46:46;3.50;;;2.80;;
17814;SDS011;9031;50.974;11.330;2023-08-30T08:49:13;3.43;;;3.13;;
17814;SDS011;9031;50.974;11.330;2023-08-30T08:51:41;3.80;;;3.00;;
17814;SDS011;9031;50.974;11.330;2023-08-30T08:54:08;4.30;;;3.40;;
17814;SDS011;9031;50.974;11.330;2023-08-30T08:56:37;4.80;;;3.37;;
17814;SDS011;9031;50.974;11.330;2023-08-30T08:59:03;3.23;;;2.93;;
17814;SDS011;9031;50.974;11.330;2023-08-30T09:01:30;2.70;;;2.60;;
17814;SDS011;9031;50.974;11.330;2023-08-30T09:03:58;2.80;;;2.60;;
17814;SDS011;9031;50.974;11.330;2023-08-30T09:06:24;3.20;;;3.00;;
17814;SDS011;9031;50.974;11.330;2023-08-30T09:08:50;3.40;;;2.80;;
17814;SDS011;9031;50.974;11.330;2023-08-30T09:11:15;4.23;;;2.97;;
17814;SDS011;9031;50.974;11.330;2023-08-30T09:13:44;2.97;;;2.73;;
17814;SDS011;9031;50.974;11.330;2023-08-30T09:16:13;3.10;;;2.90;;
17814;SDS011;9031;50.974;11.330;2023-08-30T09:18:39;3.37;;;3.17;;
17814;SDS011;9031;50.974;11.330;2023-08-30T09:21:08;5.50;;;3.17;;
17814;SDS011;9031;50.974;11.330;2023-08-30T09:23:35;2.90;;;2.70;;
17814;SDS011;9031;50.974;11.330;2023-08-30T09:26:01;4.00;;;2.63;;
17814;SDS011;9031;50.974;11.330;2023-08-30T09:28:30;3.00;;;2.80;;
17814;SDS011;9031;50.974;11.330;2023-08-30T09:30:59;3.40;;;2.63;;
17814;SDS011;9031;50.974;11.330;2023-08-30T09:33:32;3.37;;;2.80;;
17814;SDS011;9031;50.974;11.330;2023-08-30T09:35:58;3.00;;;2.80;;
17814;SDS011;9031;50.974;11.330;2023-08-30T09:38:25;3.20;;;3.00;;
17814;SDS011;9031;50.974;11.330;2023-08-30T09:40:51;2.90;;;2.73;;
17814;SDS011;9031;50.974;11.330;2023-08-30T09:43:20;4.30;;;3.00;;
17814;SDS011;9031;50.974;11.330;2023-08-30T09:45:49;2.70;;;2.60;;
17814;SDS011;9031;50.974;11.330;2023-08-30T09:48:15;3.97;;;2.70;;
17814;SDS011;9031;50.974;11.330;2023-08-30T09:50:46;2.83;;;2.53;;
17814;SDS011;9031;50.974;11.330;2023-08-30T09:53:12;4.90;;;3.03;;
17814;SDS011;9031;50.974;11.330;2023-08-30T09:55:42;3.20;;;3.00;;
17814;SDS011;9031;50.974;11.330;2023-08-30T09:58:08;2.90;;;2.70;;
17814;SDS011;9031;50.974;11.330;2023-08-30T10:00:34;3.93;;;3.50;;
17814;SDS011;9031;50.974;11.330;2023-08-30T10:03:00;3.10;;;2.80;;
17814;SDS011;9031;50.974;11.330;2023-08-30T10:05:26;2.60;;;2.50;;
17814;SDS011;9031;50.974;11.330;2023-08-30T10:07:52;3.53;;;2.53;;
17814;SDS011;9031;50.974;11.330;2023-08-30T10:10:19;3.60;;;3.40;;
17814;SDS011;9031;50.974;11.330;2023-08-30T10:12:46;3.70;;;3.50;;
17814;SDS011;9031;50.974;11.330;2023-08-30T10:15:11;3.63;;;3.37;;
17814;SDS011;9031;50.974;11.330;2023-08-30T10:17:37;3.80;;;3.60;;
17814;SDS011;9031;50.974;11.330;2023-08-30T10:20:06;3.60;;;3.50;;
17814;SDS011;9031;50.974;11.330;2023-08-30T10:22:34;3.37;;;3.17;;
17814;SDS011;9031;50.974;11.330;2023-08-30T10:25:02;3.83;;;3.63;;
17814;SDS011;9031;50.974;11.330;2023-08-30T10:27:31;3.80;;;3.60;;
17814;SDS011;9031;50.974;11.330;2023-08-30T10:29:58;3.77;;;3.63;;
17814;SDS011;9031;50.974;11.330;2023-08-30T10:32:26;3.83;;;3.50;;
17814;SDS011;9031;50.974;11.330;2023-08-30T10:34:51;3.17;;;3.07;;
17814;SDS011;9031;50.974;11.330;2023-08-30T10:37:23;3.70;;;3.57;;
17814;SDS011;9031;50.974;11.330;2023-08-30T10:39:51;3.47;;;3.37;;
17814;SDS011;9031;50.974;11.330;2023-08-30T10:42:16;3.70;;;3.50;;
17814;SDS011;9031;50.974;11.330;2023-08-30T10:44:50;4.03;;;3.30;;
17814;SDS011;9031;50.974;11.330;2023-08-30T10:47:24;3.80;;;3.60;;
17814;SDS011;9031;50.974;11.330;2023-08-30T10:49:54;3.40;;;3.30;;
17814;SDS011;9031;50.974;11.330;2023-08-30T10:52:24;3.60;;;3.40;;
17814;SDS011;9031;50.974;11.330;2023-08-30T10:54:50;4.17;;;3.97;;
17814;SDS011;9031;50.974;11.330;2023-08-30T10:57:20;3.80;;;3.50;;
17814;SDS011;9031;50.974;11.330;2023-08-30T11:02:36;3.80;;;3.60;;
17814;SDS011;9031;50.974;11.330;2023-08-30T11:05:03;4.13;;;3.83;;
17814;SDS011;9031;50.974;11.330;2023-08-30T11:07:31;3.60;;;3.40;;
17814;SDS011;9031;50.974;11.330;2023-08-30T11:09:57;4.13;;;3.90;;
17814;SDS011;9031;50.974;11.330;2023-08-30T11:12:23;3.90;;;3.70;;
17814;SDS011;9031;50.974;11.330;2023-08-30T11:14:51;4.23;;;4.00;;
17814;SDS011;9031;50.974;11.330;2023-08-30T11:17:17;4.10;;;3.90;;
17814;SDS011;9031;50.974;11.330;2023-08-30T11:19:42;4.33;;;4.03;;
17814;SDS011;9031;50.974;11.330;2023-08-30T11:22:08;4.00;;;3.80;;
17814;SDS011;9031;50.974;11.330;2023-08-30T11:24:34;4.30;;;3.90;;
17814;SDS011;9031;50.974;11.330;2023-08-30T11:27:00;4.37;;;4.17;;
17814;SDS011;9031;50.974;11.330;2023-08-30T11:29:26;4.00;;;3.80;;
17814;SDS011;9031;50.974;11.330;2023-08-30T11:31:52;4.40;;;4.20;;
17814;SDS011;9031;50.974;11.330;2023-08-30T11:34:19;4.03;;;3.83;;
17814;SDS011;9031;50.974;11.330;2023-08-30T11:36:47;4.33;;;4.03;;
17814;SDS011;9031;50.974;11.330;2023-08-30T11:39:13;4.23;;;4.03;;
17814;SDS011;9031;50.974;11.330;2023-08-30T11:41:38;4.50;;;4.20;;
17814;SDS011;9031;50.974;11.330;2023-08-30T11:44:04;4.20;;;3.90;;
17814;SDS011;9031;50.974;11.330;2023-08-30T11:46:30;4.53;;;4.27;;
17814;SDS011;9031;50.974;11.330;2023-08-30T11:48:57;4.53;;;4.23;;
17814;SDS011;9031;50.974;11.330;2023-08-30T11:51:22;4.17;;;3.93;;
17814;SDS011;9031;50.974;11.330;2023-08-30T11:53:48;4.17;;;3.97;;
17814;SDS011;9031;50.974;11.330;2023-08-30T11:56:14;4.37;;;4.10;;
17814;SDS011;9031;50.974;11.330;2023-08-30T11:58:41;4.13;;;3.83;;
17814;SDS011;9031;50.974;11.330;2023-08-30T12:01:08;7.23;;;6.53;;
17814;SDS011;9031;50.974;11.330;2023-08-30T12:03:34;4.00;;;3.80;;
17814;SDS011;9031;50.974;11.330;2023-08-30T12:06:00;3.80;;;3.60;;
17814;SDS011;9031;50.974;11.330;2023-08-30T12:08:27;3.50;;;3.30;;
17814;SDS011;9031;50.974;11.330;2023-08-30T12:10:54;3.05;;;2.90;;
17814;SDS011;9031;50.974;11.330;2023-08-30T12:13:22;3.38;;;3.08;;
17814;SDS011;9031;50.974;11.330;2023-08-30T12:15:51;3.03;;;2.83;;
17814;SDS011;9031;50.974;11.330;2023-08-30T12:18:39;3.73;;;3.40;;
17814;SDS011;9031;50.974;11.330;2023-08-30T12:21:04;3.13;;;2.97;;
17814;SDS011;9031;50.974;11.330;2023-08-30T12:23:30;2.75;;;2.55;;
17814;SDS011;9031;50.974;11.330;2023-08-30T12:25:58;2.85;;;2.65;;
17814;SDS011;9031;50.974;11.330;2023-08-30T12:28:34;2.70;;;2.50;;
17814;SDS011;9031;50.974;11.330;2023-08-30T12:31:04;2.90;;;2.67;;
17814;SDS011;9031;50.974;11.330;2023-08-30T12:33:30;3.08;;;2.88;;
17814;SDS011;9031;50.974;11.330;2023-08-30T12:35:56;3.20;;;2.90;;
17814;SDS011;9031;50.974;11.330;2023-08-30T12:38:23;3.10;;;2.90;;
17814;SDS011;9031;50.974;11.330;2023-08-30T12:40:49;7.30;;;3.25;;
17814;SDS011;9031;50.974;11.330;2023-08-30T12:43:16;3.80;;;3.20;;
17814;SDS011;9031;50.974;11.330;2023-08-30T12:45:42;3.53;;;3.20;;
17814;SDS011;9031;50.974;11.330;2023-08-30T12:48:09;3.30;;;3.00;;
17814;SDS011;9031;50.974;11.330;2023-08-30T12:50:41;3.23;;;3.03;;
17814;SDS011;9031;50.974;11.330;2023-08-30T12:53:12;3.67;;;3.47;;
17814;SDS011;9031;50.974;11.330;2023-08-30T12:55:38;4.00;;;3.80;;
17814;SDS011;9031;50.974;11.330;2023-08-30T12:58:07;3.87;;;3.67;;
17814;SDS011;9031;50.974;11.330;2023-08-30T13:00:33;4.90;;;4.60;;
17814;SDS011;9031;50.974;11.330;2023-08-30T13:02:59;4.23;;;4.00;;
17814;SDS011;9031;50.974;11.330;2023-08-30T13:05:25;4.70;;;4.50;;
17814;SDS011;9031;50.974;11.330;2023-08-30T13:07:50;4.47;;;4.17;;
17814;SDS011;9031;50.974;11.330;2023-08-30T13:10:16;4.60;;;4.30;;
17814;SDS011;9031;50.974;11.330;2023-08-30T13:12:42;4.82;;;4.53;;
17814;SDS011;9031;50.974;11.330;2023-08-30T13:15:08;5.30;;;4.90;;
17814;SDS011;9031;50.974;11.330;2023-08-30T13:17:34;4.27;;;3.97;;
17814;SDS011;9031;50.974;11.330;2023-08-30T13:19:59;4.80;;;4.47;;
17814;SDS011;9031;50.974;11.330;2023-08-30T13:22:26;4.83;;;4.63;;
17814;SDS011;9031;50.974;11.330;2023-08-30T13:24:52;4.73;;;4.43;;
17814;SDS011;9031;50.974;11.330;2023-08-30T13:27:18;4.83;;;4.53;;
17814;SDS011;9031;50.974;11.330;2023-08-30T13:29:44;4.40;;;4.20;;
17814;SDS011;9031;50.974;11.330;2023-08-30T13:32:10;4.80;;;4.40;;
17814;SDS011;9031;50.974;11.330;2023-08-30T13:34:36;4.53;;;4.20;;
17814;SDS011;9031;50.974;11.330;2023-08-30T13:37:02;4.80;;;4.40;;
17814;SDS011;9031;50.974;11.330;2023-08-30T13:39:28;3.90;;;3.60;;
17814;SDS011;9031;50.974;11.330;2023-08-30T13:41:53;4.45;;;4.25;;
17814;SDS011;9031;50.974;11.330;2023-08-30T13:44:19;4.82;;;4.40;;
17814;SDS011;9031;50.974;11.330;2023-08-30T13:46:44;4.43;;;4.13;;
17814;SDS011;9031;50.974;11.330;2023-08-30T13:49:12;4.78;;;4.45;;
17814;SDS011;9031;50.974;11.330;2023-08-30T13:51:38;4.85;;;4.55;;
17814;SDS011;9031;50.974;11.330;2023-08-30T13:54:03;4.85;;;4.60;;
17814;SDS011;9031;50.974;11.330;2023-08-30T13:56:30;5.20;;;4.90;;
17814;SDS011;9031;50.974;11.330;2023-08-30T13:58:56;4.85;;;4.55;;
17814;SDS011;9031;50.974;11.330;2023-08-30T14:01:22;4.90;;;4.65;;
17814;SDS011;9031;50.974;11.330;2023-08-30T14:03:48;5.45;;;5.03;;
17814;SDS011;9031;50.974;11.330;2023-08-30T14:06:13;5.93;;;5.47;;
17814;SDS011;9031;50.974;11.330;2023-08-30T14:08:39;5.35;;;4.80;;
17814;SDS011;9031;50.974;11.330;2023-08-30T14:11:04;4.90;;;4.60;;
17814;SDS011;9031;50.974;11.330;2023-08-30T14:13:30;4.97;;;4.68;;
17814;SDS011;9031;50.974;11.330;2023-08-30T14:15:59;5.22;;;4.82;;
17814;SDS011;9031;50.974;11.330;2023-08-30T14:18:26;5.38;;;4.88;;
17814;SDS011;9031;50.974;11.330;2023-08-30T14:20:54;6.82;;;4.97;;
17814;SDS011;9031;50.974;11.330;2023-08-30T14:23:24;5.10;;;4.80;;
17814;SDS011;9031;50.974;11.330;2023-08-30T14:26:00;5.60;;;5.30;;
17814;SDS011;9031;50.974;11.330;2023-08-30T14:28:28;5.60;;;5.30;;
17814;SDS011;9031;50.974;11.330;2023-08-30T14:30:54;5.50;;;5.23;;
17814;SDS011;9031;50.974;11.330;2023-08-30T14:33:19;5.40;;;5.10;;
17814;SDS011;9031;50.974;11.330;2023-08-30T14:35:45;5.87;;;5.57;;
17814;SDS011;9031;50.974;11.330;2023-08-30T14:38:11;5.97;;;5.47;;
17814;SDS011;9031;50.974;11.330;2023-08-30T14:40:37;5.77;;;5.37;;
17814;SDS011;9031;50.974;11.330;2023-08-30T14:43:05;5.77;;;5.37;;
17814;SDS011;9031;50.974;11.330;2023-08-30T14:45:31;5.57;;;5.27;;
17814;SDS011;9031;50.974;11.330;2023-08-30T14:47:57;6.20;;;5.90;;